Weather at Fort Lauderdale Hollywood International Airport

Public forecast

Using degrees Fahrenheit for public forecast. Weather courtesy of forecast.io.

Current aviation weather report (METAR) for Fort Lauderdale Hollywood International Airport

Retrieved 2020/09/26 21:53 UTC (8 minutes ago):

KFLL 262153Z 12004KT 10SM SCT033CB BKN048 BKN070 27/25 A2994 RMK AO2 LTG DSNT S-NW RAB06E18 SLP137 CB W MOV SE VCSH P0000 T02720250

Aviation forecast (TAF) for Fort Lauderdale Hollywood International Airport

Retrieved 2020/09/26 18:35 UTC (3 hours ago):

TAF KFLL 261729Z 2618/2724 17009KT P6SM VCTS SCT025CB BKN050 TEMPO 2618/2621 VRB15G25KT 3SM TSRA SCT015 BKN025CB FM270200 VRB03KT P6SM FEW025 SCT035 FM271500 11006KT P6SM SCT025 SCT250